• Join FlightAware (Why Join?)
  • Login
  • US Flag 
11:47AM EST


 

Airport Tracker/Info


-or-


 

Live Flight TrackerFlight Track Log ✈ VH-VJE ✈ 09-Apr-2013 ✈ YCCA / CCL - YBBN / BNE

Flight Track Log - Related Links

Times and Time Zones

All times are in EDT time to prevent confusion due to time zone crossing. See the VH-VJE flight status page for this flight to view local times or setup timezone preferences in your user account.

Time Position Orientation Groundspeed Altitude Reporting Facility
EDT Latitude Longitude Course Direction KTS MPH feet Rate Location/Type
10:02PM -26.7993 150.7279 271° West 9,000  Level Aus ATC (Calculated)
10:03PM -26.7980 150.6694 84° East 116 133 4,900 -3,240 Descending Aus ATC (RADAR)
10:03PM -26.7970 150.6793 84° East 121 139 5,500 2,100 Climbing Aus ATC (RADAR)
10:05PM -26.8009 150.7362 94° East 140 161 8,400 1,980 Climbing Aus ATC (RADAR)
10:05PM -26.8048 150.7457 115° Southeast 138 159 8,800 840 Climbing Aus ATC (RADAR)
10:05PM -26.8124 150.7732 107° East 162 186 9,100 840 Climbing Aus ATC (RADAR)
10:06PM -26.8274 150.8238 108° East 201 231 10,000 600 Climbing Aus ATC (RADAR)
10:07PM -26.8344 150.8590 102° East 199 229 10,000 60 Level Aus ATC (RADAR)
10:08PM -26.8479 150.9181 104° East 211 243 10,100 60 Climbing Aus ATC (RADAR)
10:08PM -26.8474 150.9351 88° East 208 239 10,100 -180 Level Aus ATC (RADAR)
10:09PM -26.8628 151.0086 103° East 223 257 9,900  Descending Aus ATC (RADAR)
10:10PM -26.8755 151.0453 111° Southeast 216 249 10,100 60 Climbing Aus ATC (RADAR)
10:10PM -26.8920 151.1001 109° East 221 254 10,000 -60 Descending Aus ATC (RADAR)
10:11PM -26.9093 151.1539 110° East 220 253 10,000  Level Aus ATC (RADAR)
10:12PM -26.9226 151.1980 109° East 222 255 10,000  Level Aus ATC (RADAR)
10:13PM -26.9385 151.2531 108° East 222 255 10,000  Level Aus ATC (RADAR)
10:13PM -26.9452 151.2753 109° East 223 257 10,000 60 Level Aus ATC (RADAR)
10:14PM -26.9715 151.3571 110° East 221 254 10,100  Climbing Aus ATC (RADAR)
10:15PM -26.9792 151.3902 105° East 216 249 10,000 -180 Descending Aus ATC (RADAR)
10:15PM -26.9825 151.4072 102° East 217 250 10,000  Level Aus ATC (RADAR)
10:16PM -26.9919 151.4469 105° East 224 258 10,000  Level Aus ATC (RADAR)
10:17PM -27.0085 151.5083 107° East 221 254 10,000  Level Aus ATC (RADAR)
10:17PM -27.0210 151.5472 110° East 225 259 10,000  Level Aus ATC (RADAR)
10:18PM -27.0300 151.5790 109° East 9,900 60 Descending FlightAware
10:18PM -27.0431 151.6182 109° East 195 224 10,100 60 Climbing Aus ATC (RADAR)
10:18PM -27.0420 151.6140 111° Southeast 9,900  Descending FlightAware
10:19PM -27.0460 151.6240 114° Southeast 9,800 60 Descending FlightAware
10:19PM -27.0550 151.6600 106° East 9,800 120 Level FlightAware
10:20PM -27.0560 151.6840 93° East 9,800 240 Level FlightAware
10:20PM -27.0580 151.7130 94° East 9,800 360 Level FlightAware
10:20PM -27.0602 151.7329 94° East 185 213 10,100 120 Climbing Aus ATC (RADAR)
10:21PM -27.0610 151.7390 94° East 9,800  Descending FlightAware
10:21PM -27.0670 151.7660 104° East 9,800 240 Level FlightAware
10:21PM -27.0750 151.7920 109° East 9,800 360 Level FlightAware
10:22PM -27.0810 151.8152 109° East 179 206 10,100 60 Climbing Aus ATC (RADAR)
10:22PM -27.0810 151.8160 109° East 9,900 -60 Descending FlightAware
10:22PM -27.0880 151.8420 107° East 9,800 60 Descending FlightAware
10:23PM -27.0930 151.8610 106° East 9,800 120 Level FlightAware
10:23PM -27.1020 151.8910 109° East 9,800 240 Level FlightAware
10:24PM -27.1061 151.9099 109° East 181 208 10,000 60 Climbing Aus ATC (RADAR)
10:24PM -27.1100 151.9180 109° East 9,800  Descending FlightAware
10:24PM -27.1140 151.9300 111° Southeast 9,800 120 Level FlightAware
10:25PM -27.1270 151.9660 112° Southeast 9,800 180 Level FlightAware
10:25PM -27.1350 151.9869 112° Southeast 176 203 10,000 60 Climbing Aus ATC (RADAR)
10:25PM -27.1370 151.9910 112° Southeast 9,800  Descending FlightAware
10:26PM -27.1440 152.0120 111° Southeast 9,900 120 Climbing FlightAware
10:26PM -27.1480 152.0350 101° East 9,800 60 Descending FlightAware
10:26PM -27.1510 152.0490 104° East 9,800 360 Level FlightAware
10:27PM -27.1549 152.0672 104° East 176 203 10,000 360 Climbing Aus ATC (RADAR)
10:27PM -27.1560 152.0720 104° East 9,800 120 Descending FlightAware
10:27PM -27.1616 152.0983 104° East 173 199 10,100 -60 Climbing Aus ATC (RADAR)
10:27PM -27.1610 152.0940 104° East 9,800 -120 Descending FlightAware
10:28PM -27.1740 152.1530 104° East 9,800 -60 Level FlightAware
10:28PM -27.1770 152.1660 105° East 9,800 -60 Level FlightAware
10:29PM -27.1840 152.1920 107° East 9,800 -60 Level FlightAware
10:29PM -27.1920 152.2180 109° East 9,800 -60 Level FlightAware
10:30PM -27.1980 152.2410 106° East 9,800 -60 Level FlightAware
10:30PM -27.2060 152.2670 109° East 9,900 -60 Climbing FlightAware
10:31PM -27.2130 152.2890 110° East 9,800 -120 Descending FlightAware
10:31PM -27.2190 152.3170 104° East 9,900 -120 Climbing FlightAware
10:32PM -27.2230 152.3400 101° East 9,800 -180 Descending FlightAware
10:32PM -27.2290 152.3660 105° East 9,800 -120 Level FlightAware
10:33PM -27.2340 152.3930 102° East 9,800 -180 Level FlightAware
10:33PM -27.2410 152.4170 108° East 9,600 -300 Descending FlightAware
10:33PM -27.2461 152.4397 108° East 187 215 9,600 -420 Level Aus ATC (RADAR)
10:34PM -27.2470 152.4470 108° East 9,300 -480 Descending FlightAware
10:34PM -27.2500 152.4730 97° East 9,100 -360 Descending FlightAware
10:34PM -27.2550 152.5000 102° East 8,900 -300 Descending FlightAware
10:35PM -27.2600 152.5320 100° East 8,700 -240 Descending FlightAware
10:35PM -27.2683 152.5672 100° East 199 229 8,700 -780 Level Aus ATC (RADAR)
10:35PM -27.2670 152.5640 100° East 8,500 -840 Descending FlightAware
10:36PM -27.2730 152.5940 103° East 8,200 -840 Descending FlightAware
10:36PM -27.2780 152.6210 102° East 7,800 -840 Descending FlightAware
10:37PM -27.2840 152.6510 103° East 7,300 -840 Descending FlightAware
10:37PM -27.2880 152.6810 99° East 6,800 -780 Descending FlightAware
10:38PM -27.2910 152.7040 98° East 6,400 -720 Descending FlightAware
10:38PM -27.2900 152.7330 88° East 6,000 -720 Descending FlightAware
10:39PM -27.2900 152.7620 90° East 5,600 -660 Descending FlightAware
10:39PM -27.2890 152.7870 87° East 5,300 -540 Descending FlightAware
10:40PM -27.2850 152.8190 82° East 4,900 -540 Descending FlightAware
10:40PM -27.2829 152.8389 82° East 186 214 4,900 -780 Level Aus ATC (RADAR)
10:40PM -27.2830 152.8430 82° East 4,700 -1,020 Descending FlightAware
10:41PM -27.2820 152.8740 88° East 4,200 -900 Descending FlightAware
10:41PM -27.2850 152.8980 98° East 215 247 3,900 -780 Descending FlightAware
10:42PM -27.2900 152.9280 101° East 204 235 3,500 -660 Descending FlightAware
10:42PM -27.2936 152.9484 101° East 179 206 3,400 -1,020 Descending Aus ATC (RADAR)
10:42PM -27.2950 152.9570 101° East 197 227 3,000 -1,080 Descending FlightAware
10:42PM -27.2985 152.9811 101° East 178 205 2,800 -960 Descending Aus ATC (RADAR)
10:42PM -27.2980 152.9800 101° East 202 232 2,600 -1,320 Descending FlightAware
10:43PM -27.3020 153.0080 99° East 193 222 2,100 -720 Descending FlightAware
10:43PM -27.3042 153.0309 99° East 168 193 2,000 -720 Descending Aus ATC (RADAR)
10:43PM -27.3040 153.0300 99° East 189 217 1,800 -1,560 Descending FlightAware
10:44PM -27.3070 153.0520 99° East 183 211 1,300 -900 Descending FlightAware
10:44PM -27.3130 153.0790 104° East 155 178 900 -600 Descending FlightAware
10:45PM -27.3180 153.0930 112° Southeast 142 163 700 -600 Descending FlightAware
10:45PM -27.3320 153.1060 140° Southeast 140 161 400 -720 Descending FlightAware
10:46PM -27.3390 153.1110 148° Southeast 141 162 200 -840 Descending FlightAware
10:46PM -27.3500 153.1190 147° Southeast 119 137 -480 Descending FlightAware
10:46PM -27.3600 153.1270 145° Southeast 70 81  Level FlightAware
10:47PM -27.3650 153.1310 145° Southeast 42 48  Level FlightAware
10:47PM -27.3690 153.1340 146° Southeast 24 28  Level FlightAware
10:48PM -27.3700 153.1330 222° Southwest 19 22  Level FlightAware
10:48PM -27.3710 153.1330 180° South 18 21  Level FlightAware
10:48PM -27.3720 153.1320 222° Southwest 21 24  Level FlightAware
10:49PM -27.3740 153.1320 180° South 23 26  Level FlightAware
10:49PM -27.3770 153.1310 196° South 26 30  Level FlightAware
10:49PM -27.3790 153.1290 222° Southwest 20 23  Level FlightAware
10:50PM -27.3810 153.1290 180° South 10 12  Level FlightAware
10:52PM -27.3842 153.1175 253° West  Level Estimated
10:53PM -27.3842 153.1175 North  Level Estimated
10:53PM -27.3820 153.1320 North 24 28  Level FlightAware
10:54PM -27.3840 153.1320 180° South 22 25  Level FlightAware
10:54PM -27.3840 153.1330 90° East 21 24  Level FlightAware
10:54PM -27.3850 153.1350 119° Southeast 18 21  Level FlightAware
10:55PM -27.3870 153.1340 204° Southwest 21 24  Level FlightAware
10:56PM -27.3900 153.1330 196° South 4 5  Level FlightAware
10:58PM -27.3842 153.1175 293° West  Level Estimated
10:59PM -27.3842 153.1175 North  Level Estimated
11:00PM -27.3842 153.1175 North  Level Estimated
11:01PM -27.3842 153.1175 North  Level Estimated